createdAt,value
2023-01-05T00:00:39.864Z,1012.45
2023-01-05T00:01:39.877Z,1012.47
2023-01-05T00:02:39.866Z,1012.55
2023-01-05T00:03:39.784Z,1012.44
2023-01-05T00:04:39.829Z,1012.45
2023-01-05T00:05:39.754Z,1012.44
2023-01-05T00:06:39.805Z,1012.47
2023-01-05T00:07:39.787Z,1012.42
2023-01-05T00:08:39.766Z,1012.51
2023-01-05T00:09:39.738Z,1012.42
2023-01-05T00:10:39.706Z,1012.47
2023-01-05T00:11:39.730Z,1012.41
2023-01-05T00:12:39.682Z,1012.40
2023-01-05T00:13:39.647Z,1012.47
2023-01-05T00:14:39.670Z,1012.42
2023-01-05T00:15:39.660Z,1012.45
2023-01-05T00:16:39.725Z,1012.50
2023-01-05T00:17:39.650Z,1012.56
2023-01-05T00:18:39.608Z,1012.57
2023-01-05T00:19:39.605Z,1012.46
2023-01-05T00:20:39.600Z,1012.48
2023-01-05T00:21:39.609Z,1012.50
2023-01-05T00:22:39.596Z,1012.46
2023-01-05T00:23:39.557Z,1012.44
2023-01-05T00:24:39.556Z,1012.43
2023-01-05T00:25:39.542Z,1012.49
2023-01-05T00:26:39.584Z,1012.53
2023-01-05T00:27:39.533Z,1012.43
2023-01-05T00:28:39.554Z,1012.37
2023-01-05T00:29:39.509Z,1012.47
2023-01-05T00:30:39.479Z,1012.46
2023-01-05T00:31:39.518Z,1012.40
2023-01-05T00:32:39.484Z,1012.36
2023-01-05T00:33:39.454Z,1012.46
2023-01-05T00:34:39.455Z,1012.49
2023-01-05T00:35:39.462Z,1012.46
2023-01-05T00:36:39.403Z,1012.46
2023-01-05T00:37:39.430Z,1012.50
2023-01-05T00:38:39.391Z,1012.50
2023-01-05T00:39:39.372Z,1012.44
2023-01-05T00:40:39.440Z,1012.47
2023-01-05T00:41:39.355Z,1012.43
2023-01-05T00:42:39.335Z,1012.44
2023-01-05T00:43:39.335Z,1012.51
2023-01-05T00:44:39.376Z,1012.54
2023-01-05T00:45:39.361Z,1012.40
2023-01-05T00:46:40.275Z,1012.42
2023-01-05T00:47:39.294Z,1012.46
2023-01-05T00:48:39.267Z,1012.42
2023-01-05T00:49:39.287Z,1012.46
2023-01-05T00:50:39.259Z,1012.45
2023-01-05T00:51:39.254Z,1012.48
2023-01-05T00:52:39.238Z,1012.48
2023-01-05T00:53:39.227Z,1012.52
2023-01-05T00:54:39.220Z,1012.53
2023-01-05T00:55:39.221Z,1012.47
2023-01-05T00:56:39.209Z,1012.44
2023-01-05T00:57:39.225Z,1012.54
2023-01-05T00:58:39.160Z,1012.48
2023-01-05T00:59:39.160Z,1012.49
2023-01-05T01:00:43.990Z,1012.52
2023-01-05T01:01:40.208Z,1012.54
2023-01-05T01:02:39.206Z,1012.48
2023-01-05T01:03:39.160Z,1012.57
2023-01-05T01:04:39.143Z,1012.52
2023-01-05T01:05:39.098Z,1012.61
2023-01-05T01:06:39.079Z,1012.49
2023-01-05T01:07:39.106Z,1012.47
2023-01-05T01:08:39.043Z,1012.55
2023-01-05T01:09:39.060Z,1012.49
2023-01-05T01:10:39.126Z,1012.55
2023-01-05T01:11:39.039Z,1012.58
2023-01-05T01:12:38.997Z,1012.62
2023-01-05T01:13:39.043Z,1012.67
2023-01-05T01:14:38.990Z,1012.72
2023-01-05T01:15:38.973Z,1012.62
2023-01-05T01:16:38.997Z,1012.63
2023-01-05T01:17:38.957Z,1012.74
2023-01-05T01:18:38.937Z,1012.66
2023-01-05T01:19:38.966Z,1012.71
2023-01-05T01:20:38.916Z,1012.64
2023-01-05T01:21:38.897Z,1012.56
2023-01-05T01:22:38.912Z,1012.47
2023-01-05T01:23:38.907Z,1012.59
2023-01-05T01:24:38.907Z,1012.54
2023-01-05T01:25:38.858Z,1012.52
2023-01-05T01:26:38.847Z,1012.53
2023-01-05T01:27:38.856Z,1012.45
2023-01-05T01:28:38.984Z,1012.57
2023-01-05T01:29:38.813Z,1012.53
2023-01-05T01:30:39.788Z,1012.55
2023-01-05T01:31:38.795Z,1012.53
2023-01-05T01:32:38.781Z,1012.59
2023-01-05T01:33:38.778Z,1012.59
2023-01-05T01:34:38.811Z,1012.57
2023-01-05T01:35:38.756Z,1012.64
2023-01-05T01:36:38.729Z,1012.57
2023-01-05T01:37:38.761Z,1012.67
2023-01-05T01:38:38.732Z,1012.68
2023-01-05T01:39:38.711Z,1012.59
2023-01-05T01:40:38.690Z,1012.73
2023-01-05T01:41:38.697Z,1012.67
2023-01-05T01:42:38.668Z,1012.74
2023-01-05T01:43:38.693Z,1012.78
2023-01-05T01:44:38.661Z,1012.75
2023-01-05T01:45:38.701Z,1012.84
2023-01-05T01:46:38.630Z,1012.76
2023-01-05T01:47:38.620Z,1012.78
2023-01-05T01:48:38.626Z,1012.85
2023-01-05T01:49:38.587Z,1012.80
2023-01-05T01:50:38.584Z,1012.87
2023-01-05T01:51:38.628Z,1012.84
2023-01-05T01:52:38.556Z,1012.85
2023-01-05T01:53:38.563Z,1012.87
2023-01-05T01:54:38.538Z,1012.83
2023-01-05T01:55:38.536Z,1012.79
2023-01-05T01:56:38.527Z,1012.85
2023-01-05T01:57:38.518Z,1012.92
2023-01-05T01:58:38.539Z,1012.95
2023-01-05T01:59:38.528Z,1013.00
2023-01-05T02:00:38.473Z,1012.98
2023-01-05T02:01:38.565Z,1013.01
2023-01-05T02:02:38.491Z,1012.99
2023-01-05T02:03:38.426Z,1013.05
2023-01-05T02:04:38.472Z,1013.11
2023-01-05T02:05:38.446Z,1013.02
2023-01-05T02:06:38.396Z,1013.13
2023-01-05T02:07:38.382Z,1013.16
2023-01-05T02:08:38.379Z,1013.03
2023-01-05T02:09:38.401Z,1012.98
2023-01-05T02:10:38.364Z,1013.09
2023-01-05T02:11:38.336Z,1013.05
2023-01-05T02:12:38.327Z,1013.04
2023-01-05T02:13:38.317Z,1013.04
2023-01-05T02:14:38.351Z,1013.08
2023-01-05T02:15:38.304Z,1013.10
2023-01-05T02:16:38.283Z,1013.06
2023-01-05T02:17:38.289Z,1013.12
2023-01-05T02:18:38.333Z,1013.18
2023-01-05T02:19:38.261Z,1013.06
2023-01-05T02:20:38.258Z,1013.16
2023-01-05T02:21:38.237Z,1013.15
2023-01-05T02:22:38.216Z,1013.15
2023-01-05T02:23:38.215Z,1013.09
2023-01-05T02:24:38.229Z,1013.04
2023-01-05T02:25:38.211Z,1013.16
2023-01-05T02:26:38.194Z,1013.08
2023-01-05T02:27:38.177Z,1013.15
2023-01-05T02:28:38.149Z,1013.14
2023-01-05T02:29:38.134Z,1013.19
2023-01-05T02:30:38.152Z,1013.20
2023-01-05T02:31:38.148Z,1013.23
2023-01-05T02:32:38.094Z,1013.15
2023-01-05T02:33:38.083Z,1013.11
2023-01-05T02:34:38.075Z,1013.12
2023-01-05T02:35:38.110Z,1013.13
2023-01-05T02:36:38.057Z,1013.09
2023-01-05T02:37:38.066Z,1013.12
2023-01-05T02:38:38.036Z,1013.08
2023-01-05T02:39:38.024Z,1013.12
2023-01-05T02:40:38.003Z,1013.15
2023-01-05T02:41:38.035Z,1013.22
2023-01-05T02:42:38.020Z,1013.18
2023-01-05T02:43:37.985Z,1013.13
2023-01-05T02:44:37.986Z,1013.23
2023-01-05T02:45:37.961Z,1013.16
2023-01-05T02:46:38.014Z,1013.17
2023-01-05T02:47:37.970Z,1013.13
2023-01-05T02:48:37.928Z,1013.13
2023-01-05T02:49:37.924Z,1013.18
2023-01-05T02:50:37.937Z,1013.22
2023-01-05T02:51:37.916Z,1013.20
2023-01-05T02:52:37.924Z,1013.17
2023-01-05T02:53:37.858Z,1013.30
2023-01-05T02:54:37.852Z,1013.17
2023-01-05T02:55:37.839Z,1013.12
2023-01-05T02:56:37.830Z,1013.29
2023-01-05T02:57:37.870Z,1013.23
2023-01-05T02:58:37.809Z,1013.11
2023-01-05T02:59:37.791Z,1013.03
2023-01-05T03:00:37.780Z,1013.11
2023-01-05T03:01:37.937Z,1013.09
2023-01-05T03:02:47.684Z,1013.12
2023-01-05T03:03:37.782Z,1013.30
2023-01-05T03:04:37.734Z,1013.23
2023-01-05T03:05:37.733Z,1013.20
2023-01-05T03:06:37.724Z,1013.31
2023-01-05T03:07:37.735Z,1013.29
2023-01-05T03:08:37.734Z,1013.29
2023-01-05T03:09:37.692Z,1013.34
2023-01-05T03:10:37.690Z,1013.29
2023-01-05T03:11:37.655Z,1013.16
2023-01-05T03:12:37.669Z,1013.28
2023-01-05T03:13:37.648Z,1013.22
2023-01-05T03:14:37.623Z,1013.41
2023-01-05T03:15:37.696Z,1013.24
2023-01-05T03:16:37.615Z,1013.30
2023-01-05T03:17:37.591Z,1013.27
2023-01-05T03:18:37.606Z,1013.37
2023-01-05T03:19:37.566Z,1013.34
2023-01-05T03:20:37.550Z,1013.30
2023-01-05T03:21:37.609Z,1013.27
2023-01-05T03:22:37.533Z,1013.40
2023-01-05T03:23:37.526Z,1013.39
2023-01-05T03:24:37.508Z,1013.40
2023-01-05T03:25:37.507Z,1013.40
2023-01-05T03:26:37.491Z,1013.33
2023-01-05T03:27:37.524Z,1013.37
2023-01-05T03:28:37.468Z,1013.51
2023-01-05T03:29:37.456Z,1013.44
2023-01-05T03:30:37.485Z,1013.37
2023-01-05T03:31:37.451Z,1013.38
2023-01-05T03:32:37.422Z,1013.39
2023-01-05T03:33:37.447Z,1013.40
2023-01-05T03:34:37.398Z,1013.36
2023-01-05T03:35:37.383Z,1013.52
2023-01-05T03:36:37.380Z,1013.23
2023-01-05T03:37:37.375Z,1013.32
2023-01-05T03:38:37.397Z,1013.23
2023-01-05T03:39:37.346Z,1013.36
2023-01-05T03:40:37.331Z,1013.42
2023-01-05T03:41:37.329Z,1013.27
2023-01-05T03:42:37.329Z,1013.27
2023-01-05T03:43:37.331Z,1013.39
2023-01-05T03:44:37.289Z,1013.35
2023-01-05T03:45:37.273Z,1013.27
2023-01-05T03:46:37.299Z,1013.34
2023-01-05T03:47:37.257Z,1013.46
2023-01-05T03:48:37.254Z,1013.40
2023-01-05T03:49:37.235Z,1013.47
2023-01-05T03:50:37.233Z,1013.42
2023-01-05T03:51:41.746Z,1013.39
2023-01-05T03:52:38.196Z,1013.41
2023-01-05T03:53:37.184Z,1013.39
2023-01-05T03:54:38.130Z,1013.42
2023-01-05T03:55:37.184Z,1013.40
2023-01-05T03:56:37.152Z,1013.39
2023-01-05T03:57:37.162Z,1013.46
2023-01-05T03:58:37.136Z,1013.40
2023-01-05T03:59:37.120Z,1013.36
2023-01-05T04:00:37.132Z,1013.42
2023-01-05T04:01:37.149Z,1013.34
2023-01-05T04:02:37.383Z,1013.33
2023-01-05T04:03:37.192Z,1013.44
2023-01-05T04:04:37.058Z,1013.36
2023-01-05T04:05:37.057Z,1013.33
2023-01-05T04:06:37.071Z,1013.34
2023-01-05T04:07:37.039Z,1013.34
2023-01-05T04:08:37.100Z,1013.43
2023-01-05T04:09:37.007Z,1013.38
2023-01-05T04:10:36.995Z,1013.36
2023-01-05T04:11:36.993Z,1013.38
2023-01-05T04:12:36.985Z,1013.36
2023-01-05T04:13:36.980Z,1013.34
2023-01-05T04:14:36.938Z,1013.40
2023-01-05T04:15:36.996Z,1013.36
2023-01-05T04:16:36.992Z,1013.39
2023-01-05T04:17:36.938Z,1013.42
2023-01-05T04:18:36.899Z,1013.31
2023-01-05T04:19:36.894Z,1013.42
2023-01-05T04:20:36.907Z,1013.43
2023-01-05T04:21:36.870Z,1013.29
2023-01-05T04:22:36.899Z,1013.41
2023-01-05T04:23:36.859Z,1013.42
2023-01-05T04:24:36.832Z,1013.46
2023-01-05T04:25:36.822Z,1013.37
2023-01-05T04:26:36.812Z,1013.44
2023-01-05T04:27:36.809Z,1013.39
2023-01-05T04:28:36.812Z,1013.38
2023-01-05T04:29:36.813Z,1013.35
2023-01-05T04:30:36.769Z,1013.35
2023-01-05T04:31:36.835Z,1013.43
2023-01-05T04:32:36.773Z,1013.46
2023-01-05T04:33:36.763Z,1013.42
2023-01-05T04:34:36.728Z,1013.52
2023-01-05T04:35:36.733Z,1013.50
2023-01-05T04:36:36.705Z,1013.61
2023-01-05T04:37:36.699Z,1013.57
2023-01-05T04:38:36.675Z,1013.62
2023-01-05T04:39:36.669Z,1013.64
2023-01-05T04:40:36.693Z,1013.58
2023-01-05T04:41:36.647Z,1013.57
2023-01-05T04:42:36.666Z,1013.61
2023-01-05T04:43:36.617Z,1013.55
2023-01-05T04:44:36.621Z,1013.61
2023-01-05T04:45:36.619Z,1013.56
2023-01-05T04:46:36.653Z,1013.56
2023-01-05T04:47:36.583Z,1013.56
2023-01-05T04:48:36.571Z,1013.58
2023-01-05T04:49:36.568Z,1013.61
2023-01-05T04:50:36.583Z,1013.60
2023-01-05T04:51:36.556Z,1013.61
2023-01-05T04:52:36.518Z,1013.55
2023-01-05T04:53:36.534Z,1013.61
2023-01-05T04:54:36.499Z,1013.59
2023-01-05T04:55:36.500Z,1013.54
2023-01-05T04:56:36.493Z,1013.50
2023-01-05T04:57:36.476Z,1013.53
2023-01-05T04:58:36.498Z,1013.50
2023-01-05T04:59:36.459Z,1013.52
2023-01-05T05:00:36.451Z,1013.52
2023-01-05T05:01:36.487Z,1013.61
2023-01-05T05:02:36.500Z,1013.58
2023-01-05T05:03:36.432Z,1013.58
2023-01-05T05:04:36.432Z,1013.47
2023-01-05T05:05:36.395Z,1013.70
2023-01-05T05:06:36.428Z,1013.68
2023-01-05T05:07:36.363Z,1013.64
2023-01-05T05:08:36.381Z,1013.53
2023-01-05T05:09:36.353Z,1013.63
2023-01-05T05:10:36.369Z,1013.58
2023-01-05T05:11:36.317Z,1013.68
2023-01-05T05:12:36.304Z,1013.66
2023-01-05T05:13:36.286Z,1013.49
2023-01-05T05:14:36.304Z,1013.63
2023-01-05T05:15:36.383Z,1013.61
2023-01-05T05:16:36.265Z,1013.61
2023-01-05T05:17:36.241Z,1013.63
2023-01-05T05:18:36.264Z,1013.64
2023-01-05T05:19:36.205Z,1013.61
2023-01-05T05:20:36.244Z,1013.72
2023-01-05T05:21:36.215Z,1013.68
2023-01-05T05:22:36.208Z,1013.66
2023-01-05T05:23:36.202Z,1013.77
2023-01-05T05:24:36.174Z,1013.71
2023-01-05T05:25:36.147Z,1013.80
2023-01-05T05:26:36.158Z,1013.72
2023-01-05T05:27:36.147Z,1013.76
2023-01-05T05:28:36.128Z,1013.79
2023-01-05T05:29:36.109Z,1013.73
2023-01-05T05:30:36.102Z,1013.87
2023-01-05T05:31:36.152Z,1013.75
2023-01-05T05:32:40.857Z,1013.67
2023-01-05T05:33:37.061Z,1013.75
2023-01-05T05:34:36.063Z,1013.88
2023-01-05T05:35:36.048Z,1013.82
2023-01-05T05:36:36.040Z,1013.72
2023-01-05T05:37:36.023Z,1013.77
2023-01-05T05:38:36.034Z,1013.82
2023-01-05T05:39:36.001Z,1013.77
2023-01-05T05:40:35.988Z,1013.76
2023-01-05T05:41:35.991Z,1013.83
2023-01-05T05:42:35.971Z,1013.81
2023-01-05T05:43:35.972Z,1013.82
2023-01-05T05:44:35.949Z,1013.85
2023-01-05T05:45:35.939Z,1013.86
2023-01-05T05:46:36.030Z,1013.84
2023-01-05T05:47:35.904Z,1013.85
2023-01-05T05:48:35.907Z,1013.89
2023-01-05T05:49:35.896Z,1014.00
2023-01-05T05:50:35.874Z,1013.94
2023-01-05T05:51:35.876Z,1013.99
2023-01-05T05:52:35.884Z,1014.00
2023-01-05T05:53:35.867Z,1014.04
2023-01-05T05:54:35.839Z,1014.09
2023-01-05T05:55:35.854Z,1014.05
2023-01-05T05:56:35.821Z,1014.05
2023-01-05T05:57:35.806Z,1014.09
2023-01-05T05:58:35.784Z,1014.09
2023-01-05T05:59:35.767Z,1014.05
2023-01-05T06:00:35.771Z,1014.19
2023-01-05T06:01:35.794Z,1014.16
2023-01-05T06:02:35.865Z,1014.20
2023-01-05T06:03:35.769Z,1014.15
2023-01-05T06:04:35.716Z,1014.16
2023-01-05T06:05:35.718Z,1014.14
2023-01-05T06:06:36.666Z,1014.15
2023-01-05T06:07:35.691Z,1014.20
2023-01-05T06:08:35.733Z,1014.18
2023-01-05T06:09:35.667Z,1014.20
2023-01-05T06:10:35.650Z,1014.19
2023-01-05T06:11:35.639Z,1014.21
2023-01-05T06:12:35.632Z,1014.22
2023-01-05T06:13:35.640Z,1014.21
2023-01-05T06:14:35.611Z,1014.23
2023-01-05T06:15:35.636Z,1014.28
2023-01-05T06:16:35.645Z,1014.22
2023-01-05T06:17:35.594Z,1014.24
2023-01-05T06:18:35.656Z,1014.32
2023-01-05T06:19:35.573Z,1014.25
2023-01-05T06:20:35.548Z,1014.33
2023-01-05T06:21:35.542Z,1014.32
2023-01-05T06:22:35.601Z,1014.41
2023-01-05T06:23:35.503Z,1014.31
2023-01-05T06:24:35.495Z,1014.33
2023-01-05T06:25:35.542Z,1014.36
2023-01-05T06:26:35.483Z,1014.40
2023-01-05T06:27:35.491Z,1014.35
2023-01-05T06:28:35.479Z,1014.37
2023-01-05T06:29:35.476Z,1014.33
2023-01-05T06:30:35.447Z,1014.32
2023-01-05T06:31:35.478Z,1014.42
2023-01-05T06:32:35.475Z,1014.38
2023-01-05T06:33:35.404Z,1014.45
2023-01-05T06:34:35.404Z,1014.49
2023-01-05T06:35:35.409Z,1014.51
2023-01-05T06:36:35.384Z,1014.53
2023-01-05T06:37:35.355Z,1014.47
2023-01-05T06:38:35.335Z,1014.41
2023-01-05T06:39:35.327Z,1014.50
2023-01-05T06:40:35.347Z,1014.47
2023-01-05T06:41:35.343Z,1014.52
2023-01-05T06:42:35.299Z,1014.54
2023-01-05T06:43:35.307Z,1014.49
2023-01-05T06:44:35.304Z,1014.50
2023-01-05T06:45:35.309Z,1014.52
2023-01-05T06:46:35.255Z,1014.54
2023-01-05T06:47:35.277Z,1014.59
2023-01-05T06:48:35.236Z,1014.57
2023-01-05T06:49:35.233Z,1014.64
2023-01-05T06:50:35.215Z,1014.59
2023-01-05T06:51:35.211Z,1014.62
2023-01-05T06:52:35.201Z,1014.64
2023-01-05T06:53:35.192Z,1014.60
2023-01-05T06:54:35.217Z,1014.59
2023-01-05T06:55:35.160Z,1014.62
2023-01-05T06:56:35.149Z,1014.65
2023-01-05T06:57:35.130Z,1014.56
2023-01-05T06:58:35.165Z,1014.57
2023-01-05T06:59:35.128Z,1014.62
2023-01-05T07:00:35.122Z,1014.63
2023-01-05T07:01:35.181Z,1014.67
2023-01-05T07:02:35.066Z,1014.60
2023-01-05T07:03:35.117Z,1014.66
2023-01-05T07:04:35.077Z,1014.64
2023-01-05T07:05:35.034Z,1014.74
2023-01-05T07:06:35.024Z,1014.71
2023-01-05T07:07:35.032Z,1014.72
2023-01-05T07:08:35.003Z,1014.75
2023-01-05T07:09:34.993Z,1014.75
2023-01-05T07:10:34.975Z,1014.69
2023-01-05T07:11:34.983Z,1014.71
2023-01-05T07:12:34.991Z,1014.71
2023-01-05T07:13:34.955Z,1014.75
2023-01-05T07:14:34.945Z,1014.74
2023-01-05T07:15:34.962Z,1014.78
2023-01-05T07:16:34.944Z,1014.80
2023-01-05T07:17:34.917Z,1014.85
2023-01-05T07:18:34.890Z,1014.84
2023-01-05T07:19:34.933Z,1014.82
2023-01-05T07:20:34.871Z,1014.84
2023-01-05T07:21:34.858Z,1014.95
2023-01-05T07:22:34.857Z,1014.94
2023-01-05T07:23:34.828Z,1014.92
2023-01-05T07:24:34.850Z,1014.88
2023-01-05T07:25:34.848Z,1014.87
2023-01-05T07:26:34.831Z,1014.95
2023-01-05T07:27:34.821Z,1014.96
2023-01-05T07:28:34.781Z,1014.96
2023-01-05T07:29:34.793Z,1015.00
2023-01-05T07:30:34.781Z,1015.02
2023-01-05T07:31:34.797Z,1014.97
2023-01-05T07:32:34.749Z,1015.04
2023-01-05T07:33:39.222Z,1015.00
2023-01-05T07:34:35.931Z,1014.97
2023-01-05T07:35:34.978Z,1014.94
2023-01-05T07:36:35.641Z,1014.94
2023-01-05T07:37:34.722Z,1014.93
2023-01-05T07:38:34.724Z,1015.01
2023-01-05T07:39:36.114Z,1014.99
2023-01-05T07:40:34.659Z,1014.97
2023-01-05T07:41:34.633Z,1014.93
2023-01-05T07:42:34.620Z,1015.02
2023-01-05T07:43:34.942Z,1015.00
2023-01-05T07:44:34.964Z,1014.98
2023-01-05T07:45:34.620Z,1014.98
2023-01-05T07:46:34.939Z,1015.04
2023-01-05T07:47:34.560Z,1015.04
2023-01-05T07:48:34.604Z,1015.08
2023-01-05T07:49:34.727Z,1015.10
2023-01-05T07:50:34.566Z,1015.09
2023-01-05T07:51:34.693Z,1015.11
2023-01-05T07:52:34.527Z,1015.18
2023-01-05T07:53:41.380Z,1015.15
2023-01-05T07:54:35.494Z,1015.25
2023-01-05T07:55:34.462Z,1015.17
2023-01-05T07:56:34.492Z,1015.20
2023-01-05T07:57:34.506Z,1015.27
2023-01-05T07:58:34.460Z,1015.25
2023-01-05T07:59:34.466Z,1015.18
2023-01-05T08:00:34.505Z,1015.24
2023-01-05T08:01:34.550Z,1015.26
2023-01-05T08:02:36.265Z,1015.22
2023-01-05T08:03:34.398Z,1015.25
2023-01-05T08:04:34.465Z,1015.34
2023-01-05T08:05:34.397Z,1015.32
2023-01-05T08:06:34.358Z,1015.40
2023-01-05T08:07:35.826Z,1015.37
2023-01-05T08:08:34.365Z,1015.33
2023-01-05T08:09:34.497Z,1015.39
2023-01-05T08:10:35.773Z,1015.41
2023-01-05T08:11:34.294Z,1015.39
2023-01-05T08:12:34.291Z,1015.48
2023-01-05T08:13:34.284Z,1015.41
2023-01-05T08:14:34.279Z,1015.49
2023-01-05T08:15:34.318Z,1015.46
2023-01-05T08:16:34.367Z,1015.50
2023-01-05T08:17:34.220Z,1015.46
2023-01-05T08:18:34.249Z,1015.52
2023-01-05T08:19:34.243Z,1015.49
2023-01-05T08:20:34.220Z,1015.44
2023-01-05T08:21:34.210Z,1015.53
2023-01-05T08:22:34.194Z,1015.45
2023-01-05T08:23:34.173Z,1015.52
2023-01-05T08:24:34.199Z,1015.42
2023-01-05T08:25:34.153Z,1015.41
2023-01-05T08:26:34.183Z,1015.44
2023-01-05T08:27:34.163Z,1015.40
2023-01-05T08:28:35.669Z,1015.48
2023-01-05T08:29:34.100Z,1015.41
2023-01-05T08:30:34.078Z,1015.56
2023-01-05T08:31:34.131Z,1015.52
2023-01-05T08:32:34.065Z,1015.51
2023-01-05T08:33:34.075Z,1015.57
2023-01-05T08:34:35.102Z,1015.55
2023-01-05T08:35:34.986Z,1015.57
2023-01-05T08:36:34.020Z,1015.59
2023-01-05T08:37:34.049Z,1015.56
2023-01-05T08:38:33.993Z,1015.58
2023-01-05T08:39:33.993Z,1015.59
2023-01-05T08:40:33.982Z,1015.57
2023-01-05T08:41:33.967Z,1015.61
2023-01-05T08:42:33.975Z,1015.64
2023-01-05T08:43:33.939Z,1015.69
2023-01-05T08:44:33.954Z,1015.68
2023-01-05T08:45:34.018Z,1015.70
2023-01-05T08:46:33.951Z,1015.69
2023-01-05T08:47:33.918Z,1015.71
2023-01-05T08:48:34.842Z,1015.75
2023-01-05T08:49:33.873Z,1015.78
2023-01-05T08:50:33.876Z,1015.80
2023-01-05T08:51:33.854Z,1015.77
2023-01-05T08:52:33.868Z,1015.81
2023-01-05T08:53:33.824Z,1015.76
2023-01-05T08:54:33.838Z,1015.82
2023-01-05T08:55:33.821Z,1015.85
2023-01-05T08:56:38.653Z,1015.82
2023-01-05T08:57:34.776Z,1015.82
2023-01-05T08:58:33.833Z,1015.80
2023-01-05T08:59:33.786Z,1015.88
2023-01-05T09:00:33.749Z,1015.85
2023-01-05T09:01:33.813Z,1015.90
2023-01-05T09:02:33.948Z,1015.84
2023-01-05T09:03:33.786Z,1015.83
2023-01-05T09:04:33.701Z,1015.91
2023-01-05T09:05:33.700Z,1015.88
2023-01-05T09:06:33.679Z,1015.92
2023-01-05T09:07:33.702Z,1015.93
2023-01-05T09:08:33.657Z,1015.96
2023-01-05T09:09:33.736Z,1015.92
2023-01-05T09:10:35.086Z,1015.98
2023-01-05T09:11:33.680Z,1016.00
2023-01-05T09:12:33.613Z,1016.02
2023-01-05T09:13:33.741Z,1016.01
2023-01-05T09:14:33.613Z,1016.00
2023-01-05T09:15:33.630Z,1016.02
2023-01-05T09:17:34.603Z,1016.09
2023-01-05T09:18:33.546Z,1016.12
2023-01-05T09:19:33.543Z,1016.10
2023-01-05T09:20:39.617Z,1016.14
2023-01-05T09:21:34.552Z,1016.11
2023-01-05T09:22:33.497Z,1016.13
2023-01-05T09:23:33.491Z,1016.09
2023-01-05T09:24:33.477Z,1016.15
2023-01-05T09:25:33.475Z,1016.11
2023-01-05T09:26:33.445Z,1016.12
2023-01-05T09:27:33.495Z,1016.16
2023-01-05T09:28:33.437Z,1016.15
2023-01-05T09:29:33.431Z,1016.10
2023-01-05T09:30:41.894Z,1016.14
2023-01-05T09:31:34.484Z,1016.21
2023-01-05T09:32:33.403Z,1016.20
2023-01-05T09:33:33.421Z,1016.22
2023-01-05T09:34:33.366Z,1016.26
2023-01-05T09:35:33.350Z,1016.31
2023-01-05T09:36:33.338Z,1016.32
2023-01-05T09:37:33.346Z,1016.33
2023-01-05T09:38:33.334Z,1016.33
2023-01-05T09:39:33.348Z,1016.38
2023-01-05T09:40:33.319Z,1016.37
2023-01-05T09:41:33.299Z,1016.37
2023-01-05T09:42:33.277Z,1016.41
2023-01-05T09:43:33.273Z,1016.31
2023-01-05T09:44:33.265Z,1016.42
2023-01-05T09:45:34.228Z,1016.43
2023-01-05T09:46:33.259Z,1016.44
2023-01-05T09:47:33.264Z,1016.49
2023-01-05T09:48:33.212Z,1016.38
2023-01-05T09:49:33.224Z,1016.43
2023-01-05T09:50:33.185Z,1016.47
2023-01-05T09:51:33.236Z,1016.51
2023-01-05T09:52:38.030Z,1016.61
2023-01-05T09:53:34.176Z,1016.56
2023-01-05T09:54:33.139Z,1016.57
2023-01-05T09:55:33.175Z,1016.63
2023-01-05T09:57:34.104Z,1016.63
2023-01-05T09:58:33.115Z,1016.62
2023-01-05T09:59:33.085Z,1016.67
2023-01-05T10:00:33.081Z,1016.59
2023-01-05T10:01:33.111Z,1016.45
2023-01-05T10:02:33.059Z,1016.65
2023-01-05T10:04:34.155Z,1016.50
2023-01-05T10:05:33.077Z,1016.55
2023-01-05T10:06:33.004Z,1016.57
2023-01-05T10:07:33.026Z,1016.64
2023-01-05T10:08:33.035Z,1016.68
2023-01-05T10:09:32.966Z,1016.69
2023-01-05T10:10:32.954Z,1016.53
2023-01-05T10:11:32.951Z,1016.58
2023-01-05T10:12:32.972Z,1016.60
2023-01-05T10:13:32.935Z,1016.63
2023-01-05T10:14:32.955Z,1016.69
2023-01-05T10:15:32.938Z,1016.62
2023-01-05T10:16:32.932Z,1016.65
2023-01-05T10:17:42.229Z,1016.59
2023-01-05T10:18:33.881Z,1016.62
2023-01-05T10:19:32.863Z,1016.75
2023-01-05T10:20:32.845Z,1016.62
2023-01-05T10:21:32.839Z,1016.79
2023-01-05T10:22:38.463Z,1016.71
2023-01-05T10:23:33.821Z,1016.73
2023-01-05T10:24:32.795Z,1016.81
2023-01-05T10:25:32.793Z,1016.77
2023-01-05T10:26:58.195Z,1016.78
2023-01-05T10:27:33.811Z,1016.79
2023-01-05T10:28:32.966Z,1016.80
2023-01-05T10:29:32.751Z,1016.78
2023-01-05T10:30:32.739Z,1016.77
2023-01-05T10:31:32.750Z,1016.74
2023-01-05T10:32:39.193Z,1016.82
2023-01-05T10:33:40.313Z,1016.86
2023-01-05T10:34:34.663Z,1016.80
2023-01-05T10:37:06.645Z,1016.89
2023-01-05T10:37:33.665Z,1016.82
2023-01-05T10:38:32.712Z,1016.74
2023-01-05T10:39:32.663Z,1016.82
2023-01-05T10:40:32.859Z,1016.78
2023-01-05T10:41:32.646Z,1016.78
2023-01-05T10:42:32.599Z,1016.87
2023-01-05T10:43:32.596Z,1016.82
2023-01-05T10:44:32.580Z,1016.80
2023-01-05T10:45:32.598Z,1016.78
2023-01-05T10:46:40.859Z,1016.79
2023-01-05T10:47:33.616Z,1016.81
2023-01-05T10:48:33.481Z,1016.81
2023-01-05T10:49:32.607Z,1016.85
2023-01-05T10:50:32.527Z,1016.80
2023-01-05T10:51:33.049Z,1016.84
2023-01-05T10:52:32.501Z,1016.82
2023-01-05T10:53:34.080Z,1016.85
2023-01-05T10:54:32.470Z,1016.84
2023-01-05T10:55:32.467Z,1016.87
2023-01-05T10:56:32.457Z,1016.86
2023-01-05T10:57:35.813Z,1016.90
2023-01-05T10:58:32.435Z,1016.87
2023-01-05T10:59:32.428Z,1016.87
2023-01-05T11:00:32.407Z,1016.89
2023-01-05T11:01:32.467Z,1016.94
2023-01-05T11:02:32.552Z,1016.92
2023-01-05T11:04:05.793Z,1016.93
2023-01-05T11:04:35.440Z,1016.85
2023-01-05T11:05:32.410Z,1016.89
2023-01-05T11:06:32.345Z,1016.84
2023-01-05T11:07:33.782Z,1016.85
2023-01-05T11:08:32.302Z,1016.87
2023-01-05T11:09:32.324Z,1016.87
2023-01-05T11:10:32.292Z,1016.89
2023-01-05T11:11:32.297Z,1016.90
2023-01-05T11:12:33.716Z,1016.94
2023-01-05T11:13:32.259Z,1016.90
2023-01-05T11:14:32.268Z,1016.90
2023-01-05T11:15:32.344Z,1016.88
2023-01-05T11:16:32.218Z,1016.97
2023-01-05T11:17:32.236Z,1016.90
2023-01-05T11:18:32.365Z,1016.86
2023-01-05T11:19:32.187Z,1016.90
2023-01-05T11:20:32.168Z,1016.93
2023-01-05T11:21:32.165Z,1016.93
2023-01-05T11:22:32.169Z,1016.97
2023-01-05T11:23:32.136Z,1016.91
2023-01-05T11:24:32.174Z,1016.84
2023-01-05T11:25:32.130Z,1016.89
2023-01-05T11:26:32.123Z,1016.87
2023-01-05T11:27:32.102Z,1016.89
2023-01-05T11:28:32.084Z,1016.92
2023-01-05T11:29:32.099Z,1016.90
2023-01-05T11:30:32.091Z,1016.88
2023-01-05T11:31:32.094Z,1016.84
2023-01-05T11:32:32.052Z,1016.87
2023-01-05T11:33:32.049Z,1016.88
2023-01-05T11:34:32.354Z,1016.91
2023-01-05T11:35:32.011Z,1016.86
2023-01-05T11:36:32.019Z,1016.89
2023-01-05T11:37:32.572Z,1016.91
2023-01-05T11:38:32.021Z,1016.90
2023-01-05T11:39:31.978Z,1016.99
2023-01-05T11:40:31.994Z,1016.99
2023-01-05T11:41:32.633Z,1017.00
2023-01-05T11:42:31.928Z,1017.00
2023-01-05T11:43:32.911Z,1016.96
2023-01-05T11:44:31.938Z,1016.94
2023-01-05T11:45:32.312Z,1017.00
2023-01-05T11:46:32.616Z,1017.02
2023-01-05T11:47:33.465Z,1016.92
2023-01-05T11:48:31.884Z,1016.90
2023-01-05T11:49:31.875Z,1016.86
2023-01-05T11:50:31.864Z,1016.85
2023-01-05T11:51:31.841Z,1016.90
2023-01-05T11:52:31.830Z,1016.86
2023-01-05T11:53:32.781Z,1016.83
2023-01-05T11:54:31.814Z,1016.84
2023-01-05T11:55:31.830Z,1016.82
2023-01-05T11:56:31.768Z,1016.89
2023-01-05T11:57:32.117Z,1016.82
2023-01-05T11:58:31.754Z,1016.83
2023-01-05T11:59:31.767Z,1016.88
2023-01-05T12:00:33.271Z,1016.83
2023-01-05T12:01:31.736Z,1016.78
2023-01-05T12:02:31.836Z,1016.81
2023-01-05T12:03:33.206Z,1016.81
2023-01-05T12:04:31.717Z,1016.84
2023-01-05T12:05:31.670Z,1016.82
2023-01-05T12:06:31.846Z,1016.78
2023-01-05T12:07:31.660Z,1016.80
2023-01-05T12:08:31.766Z,1016.85
2023-01-05T12:09:35.042Z,1016.81